Terminal Aerodrome Forecast
Issued by NWS

Home | Current Version | Previous Version | Text Only | Print | Product List | Glossary On
Versions: 1 2 3 4 5 6 7 8 9 10 11 12 13 14 15 16 17 18 19 20 21 22 23 24 25 26 27 28 29 30 31 32 33
250
FTUS43 KGRB 241736
TAFRHI
TAF
KRHI 241736Z 2418/2518 26008G15KT P6SM BKN018
     FM242000 28010G17KT P6SM SCT025
     FM250200 29006KT P6SM FEW250=

USA.gov is the U.S. government's official web portal to all federal, state and local government web resources and services.